Time;durP1;ratioP1;P1;durP2;ratioP2;P2;SDS_P1;SDS_P2;PMS_P1;PMS_P2;Temp;Humidity;BMP_temperature;BMP_pressure;BME280_temperature;BME280_humidity;BME280_pressure;Samples;Min_cycle;Max_cycle;Signal;HPM_P1;HPM_P2
2021/12/27 00:02:12;;;;;;;36.77;19.37;;;;;;;1.96;100.00;97984.66;5043441;28;20201;-86
2021/12/27 00:04:41;;;;;;;40.07;21.17;;;;;;;1.96;100.00;97979.41;5048555;28;20190;-86
2021/12/27 00:07:10;;;;;;;40.33;20.53;;;;;;;1.98;100.00;97989.78;5049874;28;20201;-86
2021/12/27 00:09:39;;;;;;;41.07;20.00;;;;;;;1.94;100.00;97990.88;5051213;28;20675;-86
2021/12/27 00:12:11;;;;;;;40.27;21.10;;;;;;;1.93;100.00;97986.53;5047028;28;20196;-87
2021/12/27 00:14:39;;;;;;;37.00;19.70;;;;;;;1.98;100.00;97981.94;5049007;28;20176;-87
2021/12/27 00:17:08;;;;;;;42.90;20.37;;;;;;;1.92;100.00;97984.84;5054650;28;20213;-86
2021/12/27 00:19:36;;;;;;;37.93;20.27;;;;;;;1.96;100.00;97984.66;5050834;28;20189;-86
2021/12/27 00:22:05;;;;;;;39.80;20.13;;;;;;;1.79;100.00;97986.38;5046345;28;20597;-87
2021/12/27 00:24:34;;;;;;;36.73;19.43;;;;;;;1.89;100.00;97982.41;5047568;28;20204;-87
2021/12/27 00:27:02;;;;;;;32.93;18.67;;;;;;;1.71;100.00;97976.28;5054631;28;20177;-82
2021/12/27 00:29:33;;;;;;;37.20;19.07;;;;;;;1.83;100.00;97972.22;5072517;28;20189;-85
2021/12/27 00:32:01;;;;;;;36.13;20.23;;;;;;;1.61;100.00;97970.66;5045064;28;20231;-87
2021/12/27 00:34:30;;;;;;;38.97;20.47;;;;;;;1.69;100.00;97973.75;4970946;28;20262;-86
2021/12/27 00:36:58;;;;;;;40.83;20.17;;;;;;;1.73;100.00;97974.44;4932823;29;20197;-86
2021/12/27 00:39:27;;;;;;;36.73;19.30;;;;;;;1.75;100.00;97972.63;4929140;29;20196;-87
2021/12/27 00:41:58;;;;;;;36.67;19.67;;;;;;;1.62;100.00;97974.09;4927612;29;20205;-85
2021/12/27 00:44:27;;;;;;;39.77;20.63;;;;;;;1.59;100.00;97979.47;4927464;29;20336;-86
2021/12/27 00:46:57;;;;;;;39.50;20.17;;;;;;;1.72;100.00;97970.13;4931027;29;20197;-89
2021/12/27 00:49:26;;;;;;;37.73;19.93;;;;;;;1.77;100.00;97970.78;4878866;29;20203;-86
2021/12/27 00:51:56;;;;;;;40.27;20.30;;;;;;;1.78;100.00;97969.84;4857338;29;20221;-87
2021/12/27 00:54:25;;;;;;;39.57;20.27;;;;;;;1.88;100.00;97971.09;4951709;29;20185;-87
2021/12/27 00:56:53;;;;;;;40.00;20.63;;;;;;;1.82;100.00;97967.94;4953723;29;20213;-87
2021/12/27 00:59:21;;;;;;;38.37;19.50;;;;;;;1.80;100.00;97970.63;4948855;29;20201;-88
2021/12/27 01:01:49;;;;;;;42.60;20.60;;;;;;;1.77;100.00;97957.72;4954232;28;20203;-88
2021/12/27 01:04:20;;;;;;;39.77;20.93;;;;;;;1.76;100.00;97960.41;4983852;28;20203;-87
2021/12/27 01:06:48;;;;;;;38.53;20.40;;;;;;;1.88;100.00;97954.59;4992743;28;20749;-88
2021/12/27 01:09:27;;;;;;;40.40;21.23;;;;;;;1.85;100.00;97960.81;4995274;28;20191;-86
2021/12/27 01:12:11;;;;;;;38.67;20.03;;;;;;;1.92;100.00;97959.59;4995485;28;20219;-87
2021/12/27 01:14:43;;;;;;;40.63;21.67;;;;;;;1.95;100.00;97962.06;5038526;28;20200;-88
2021/12/27 01:17:13;;;;;;;39.73;21.37;;;;;;;2.03;100.00;97964.31;5051797;28;20223;-88
2021/12/27 01:19:42;;;;;;;39.33;20.37;;;;;;;2.00;100.00;97962.69;5053279;28;20255;-88
2021/12/27 01:22:11;;;;;;;36.93;20.30;;;;;;;2.01;100.00;97960.91;5054257;28;20224;-87
2021/12/27 01:24:39;;;;;;;38.17;19.97;;;;;;;2.06;100.00;97961.53;5054434;28;20193;-87
2021/12/27 01:27:12;;;;;;;35.37;19.83;;;;;;;2.03;100.00;97958.22;5053952;28;20174;-89
2021/12/27 01:29:40;;;;;;;39.23;21.03;;;;;;;1.98;100.00;97954.06;5057103;28;20177;-88
2021/12/27 01:32:09;;;;;;;34.73;19.60;;;;;;;2.07;100.00;97967.59;5050466;28;20236;-88
2021/12/27 01:34:38;;;;;;;34.30;19.43;;;;;;;2.11;100.00;97961.31;5049826;28;20177;-88
2021/12/27 01:37:08;;;;;;;38.60;20.77;;;;;;;2.10;100.00;97960.47;5048582;28;20240;-87
2021/12/27 01:39:36;;;;;;;36.10;20.30;;;;;;;2.09;100.00;97957.94;5051332;28;20208;-87
2021/12/27 01:42:05;;;;;;;35.60;19.77;;;;;;;2.07;100.00;97959.78;5052989;28;20197;-88
2021/12/27 01:44:33;;;;;;;36.67;20.13;;;;;;;2.09;100.00;97960.53;5052579;28;20215;-87
2021/12/27 01:47:01;;;;;;;37.47;19.63;;;;;;;2.09;100.00;97960.53;5038837;28;20211;-86
2021/12/27 01:49:30;;;;;;;36.93;19.10;;;;;;;2.11;100.00;97956.91;5047794;28;20201;-87
2021/12/27 01:51:58;;;;;;;40.00;21.20;;;;;;;2.04;100.00;97963.38;5056363;28;20220;-86
2021/12/27 01:54:28;;;;;;;38.20;19.90;;;;;;;2.11;100.00;97953.47;5048585;28;20201;-85
2021/12/27 01:56:57;;;;;;;36.80;18.87;;;;;;;2.08;100.00;97958.84;5046974;28;20196;-86
2021/12/27 01:59:25;;;;;;;35.90;20.17;;;;;;;2.08;100.00;97951.88;5056254;28;20205;-86
2021/12/27 02:01:53;;;;;;;39.87;20.90;;;;;;;2.10;100.00;97957.84;5044611;28;20287;-85
2021/12/27 02:04:22;;;;;;;37.67;20.90;;;;;;;2.14;100.00;97955.94;5056264;28;20649;-87
2021/12/27 02:06:50;;;;;;;36.13;19.83;;;;;;;2.12;100.00;97963.00;5048306;28;20208;-86
2021/12/27 02:09:21;;;;;;;40.50;20.63;;;;;;;2.01;100.00;97956.53;5051585;28;20193;-86
2021/12/27 02:11:51;;;;;;;37.33;20.50;;;;;;;2.08;100.00;97954.47;5050980;28;20216;-86
2021/12/27 02:14:19;;;;;;;36.33;19.47;;;;;;;2.10;100.00;97954.38;5056477;28;20178;-86
2021/12/27 02:16:47;;;;;;;37.20;19.87;;;;;;;2.03;100.00;97956.47;5051379;28;20227;-87
2021/12/27 02:19:16;;;;;;;35.97;20.43;;;;;;;2.11;100.00;97953.47;5054895;28;20674;-87
2021/12/27 02:21:45;;;;;;;32.10;19.30;;;;;;;2.13;100.00;97951.66;5053260;28;20215;-87
2021/12/27 02:24:13;;;;;;;35.50;19.93;;;;;;;2.08;100.00;97953.63;5049279;28;20185;-87
2021/12/27 02:26:43;;;;;;;34.97;19.43;;;;;;;2.06;100.00;97940.66;5054468;28;20205;-87
2021/12/27 02:29:11;;;;;;;32.33;18.67;;;;;;;2.12;100.00;97944.72;5052789;28;20201;-87
2021/12/27 02:31:41;;;;;;;32.50;18.37;;;;;;;2.20;100.00;97930.34;5047896;28;20209;-87
2021/12/27 02:34:10;;;;;;;33.63;18.93;;;;;;;2.21;100.00;97928.59;5050624;28;20169;-86
2021/12/27 02:36:38;;;;;;;32.70;18.33;;;;;;;2.09;100.00;97924.81;5047507;28;20192;-85
2021/12/27 02:39:08;;;;;;;30.00;17.40;;;;;;;2.17;100.00;97919.22;5048677;28;20201;-85
2021/12/27 02:41:36;;;;;;;29.90;17.43;;;;;;;2.19;100.00;97922.59;5052434;28;20365;-86
2021/12/27 02:44:05;;;;;;;29.03;16.70;;;;;;;2.19;100.00;97915.59;5050757;28;20191;-87
2021/12/27 02:46:34;;;;;;;30.07;17.97;;;;;;;2.11;100.00;97920.38;5054756;28;20663;-85
2021/12/27 02:49:02;;;;;;;29.43;17.10;;;;;;;2.07;100.00;97912.78;5044046;28;20216;-86
2021/12/27 02:51:30;;;;;;;32.30;18.07;;;;;;;2.05;100.00;97917.22;5054441;28;20220;-85
2021/12/27 02:54:01;;;;;;;33.13;17.40;;;;;;;2.01;100.00;97917.38;5050791;28;20232;-87
2021/12/27 02:56:31;;;;;;;29.77;17.17;;;;;;;2.08;100.00;97917.91;5027800;28;20198;-87
2021/12/27 02:58:59;;;;;;;30.77;17.73;;;;;;;2.04;100.00;97921.63;5054503;28;20204;-86
2021/12/27 03:01:28;;;;;;;28.80;16.30;;;;;;;2.13;100.00;97918.53;5045342;28;20200;-88
2021/12/27 03:03:57;;;;;;;32.67;17.57;;;;;;;2.21;100.00;97912.91;5044296;28;20224;-87
2021/12/27 03:06:25;;;;;;;27.70;16.20;;;;;;;2.22;100.00;97914.59;5055148;28;20169;-87
2021/12/27 03:08:53;;;;;;;30.33;16.00;;;;;;;2.26;100.00;97914.38;5048450;28;20191;-88
2021/12/27 03:11:22;;;;;;;30.33;17.93;;;;;;;2.34;100.00;97908.78;5051907;28;20235;-87
2021/12/27 03:13:52;;;;;;;30.67;17.50;;;;;;;2.32;100.00;97908.00;5052008;28;20197;-88
2021/12/27 03:16:23;;;;;;;27.73;16.10;;;;;;;2.29;100.00;97906.38;5051941;28;20183;-88
2021/12/27 03:18:54;;;;;;;32.27;17.20;;;;;;;2.38;100.00;97912.91;5049944;28;20216;-87
2021/12/27 03:21:23;;;;;;;30.30;16.03;;;;;;;2.37;100.00;97905.16;5054853;28;20189;-88
2021/12/27 03:23:51;;;;;;;26.67;15.03;;;;;;;2.38;100.00;97904.22;5054588;28;20200;-88
2021/12/27 03:26:20;;;;;;;25.63;15.00;;;;;;;2.35;100.00;97901.78;5055267;28;20197;-88
2021/12/27 03:28:49;;;;;;;26.13;15.30;;;;;;;2.47;100.00;97904.59;5052112;28;20184;-87
2021/12/27 03:31:19;;;;;;;24.67;14.70;;;;;;;2.43;100.00;97902.25;5052858;28;20196;-88
2021/12/27 03:33:48;;;;;;;21.53;13.00;;;;;;;2.47;100.00;97904.59;5072005;28;21094;-86
2021/12/27 03:36:17;;;;;;;28.70;14.93;;;;;;;2.38;100.00;97902.47;5060337;28;20231;-89
2021/12/27 03:38:52;;;;;;;26.37;14.23;;;;;;;2.32;100.00;97904.53;5055136;28;20189;-89
2021/12/27 03:41:23;;;;;;;26.63;14.57;;;;;;;2.48;100.00;97902.84;5051421;28;20196;-89
2021/12/27 03:43:53;;;;;;;25.60;13.17;;;;;;;2.53;100.00;97900.84;5051682;28;20197;-88
2021/12/27 03:46:24;;;;;;;23.97;12.53;;;;;;;2.49;100.00;97901.91;5046602;28;20197;-87
2021/12/27 03:48:53;;;;;;;22.87;12.43;;;;;;;2.37;100.00;97899.94;5054321;28;20193;-89
2021/12/27 03:51:21;;;;;;;29.97;12.37;;;;;;;2.31;100.00;97893.25;5054725;28;20248;-89
2021/12/27 03:53:52;;;;;;;23.17;11.97;;;;;;;2.45;100.00;97898.63;5049017;28;20220;-89
2021/12/27 03:56:23;;;;;;;26.43;12.57;;;;;;;2.53;100.00;97887.78;5050320;28;20224;-89
2021/12/27 03:58:58;;;;;;;19.53;11.63;;;;;;;2.51;100.00;97893.09;5050047;28;20201;-89
2021/12/27 04:01:29;;;;;;;23.27;13.50;;;;;;;2.44;100.00;97899.53;5048974;28;20212;-90
2021/12/27 04:03:57;;;;;;;22.87;13.33;;;;;;;2.41;100.00;97888.38;5054240;28;20197;-90
2021/12/27 04:06:28;;;;;;;27.50;14.63;;;;;;;2.46;100.00;97887.25;5046922;28;20208;-86
2021/12/27 04:08:57;;;;;;;26.57;14.60;;;;;;;2.46;100.00;97894.22;5049922;28;20189;-89
2021/12/27 04:11:25;;;;;;;26.17;14.33;;;;;;;2.44;100.00;97883.88;5051104;28;20193;-88
2021/12/27 04:13:58;;;;;;;22.30;13.20;;;;;;;2.47;100.00;97880.25;5050978;28;20224;-89
2021/12/27 04:16:28;;;;;;;25.20;13.43;;;;;;;2.35;100.00;97871.28;5051506;28;20197;-89
2021/12/27 04:18:57;;;;;;;25.47;13.07;;;;;;;2.38;100.00;97886.78;5045036;28;20205;-89
2021/12/27 04:21:25;;;;;;;25.80;13.20;;;;;;;2.45;100.00;97885.56;5046320;28;20200;-88
2021/12/27 04:23:53;;;;;;;22.87;13.03;;;;;;;2.47;100.00;97888.91;5049424;28;20235;-89
2021/12/27 04:26:22;;;;;;;26.40;13.33;;;;;;;2.47;100.00;97885.47;5049960;28;20186;-89
2021/12/27 04:28:51;;;;;;;22.23;12.40;;;;;;;2.46;100.00;97886.41;5051497;28;20195;-88
2021/12/27 04:31:19;;;;;;;22.10;12.40;;;;;;;2.43;100.00;97876.09;5050513;28;20273;-88
2021/12/27 04:33:49;;;;;;;18.87;11.37;;;;;;;2.50;100.00;97874.84;5049315;28;20244;-88
2021/12/27 04:36:18;;;;;;;19.07;11.37;;;;;;;2.48;100.00;97874.94;5044070;28;20202;-87
2021/12/27 04:38:47;;;;;;;17.70;11.17;;;;;;;2.55;100.00;97871.06;5042376;28;20208;-88
2021/12/27 04:41:21;;;;;;;17.60;10.53;;;;;;;2.53;100.00;97872.09;5053984;28;20208;-89
2021/12/27 04:43:49;;;;;;;20.17;11.37;;;;;;;2.68;100.00;97888.72;5051766;28;20197;-87
2021/12/27 04:46:17;;;;;;;21.27;12.10;;;;;;;2.56;100.00;97879.75;5049044;28;20246;-89
2021/12/27 04:48:49;;;;;;;22.60;13.57;;;;;;;2.50;100.00;97888.75;5053785;28;20235;-89
2021/12/27 04:51:20;;;;;;;23.40;13.10;;;;;;;2.50;100.00;97880.91;5050266;28;20201;-89
2021/12/27 04:53:48;;;;;;;23.03;13.10;;;;;;;2.51;100.00;97882.63;5050799;28;20240;-88
2021/12/27 04:56:17;;;;;;;19.27;12.27;;;;;;;2.49;100.00;97881.84;5052254;28;20660;-88
2021/12/27 04:58:46;;;;;;;23.57;12.77;;;;;;;2.50;100.00;97878.31;5051234;28;20200;-88
2021/12/27 05:01:14;;;;;;;20.00;11.70;;;;;;;2.42;100.00;97869.19;5012028;28;20257;-88
2021/12/27 05:03:42;;;;;;;24.00;12.40;;;;;;;2.47;100.00;97869.78;5012720;28;20237;-88
2021/12/27 05:06:13;;;;;;;22.57;13.03;;;;;;;2.48;100.00;97868.88;5016002;28;20198;-89
2021/12/27 05:08:42;;;;;;;25.23;13.50;;;;;;;2.51;100.00;97866.09;5009633;28;20202;-89
2021/12/27 05:11:11;;;;;;;23.07;13.77;;;;;;;2.48;100.00;97877.53;5009018;28;20199;-88
2021/12/27 05:13:39;;;;;;;21.93;12.73;;;;;;;2.46;100.00;97868.09;5004508;28;20214;-87
2021/12/27 05:16:08;;;;;;;21.73;12.50;;;;;;;2.51;100.00;97866.97;4983119;28;20198;-90
2021/12/27 05:18:36;;;;;;;21.73;12.93;;;;;;;2.47;100.00;97859.34;5014686;28;20277;-89
2021/12/27 05:21:05;;;;;;;27.97;14.50;;;;;;;2.45;100.00;97861.19;5009616;28;20237;-90
2021/12/27 05:23:34;;;;;;;32.90;13.83;;;;;;;2.50;100.00;97862.63;5009543;28;20195;-89
2021/12/27 05:26:04;;;;;;;33.90;15.97;;;;;;;2.43;100.00;97860.44;5032980;28;20208;-88
2021/12/27 05:28:33;;;;;;;38.60;14.90;;;;;;;2.44;100.00;97864.72;5057223;28;20185;-90
2021/12/27 05:31:01;;;;;;;26.07;15.10;;;;;;;2.42;100.00;97864.81;5057424;28;20185;-91
2021/12/27 05:33:29;;;;;;;34.90;15.87;;;;;;;2.34;100.00;97864.38;4994342;28;20227;-90
2021/12/27 05:35:58;;;;;;;26.40;14.27;;;;;;;2.38;100.00;97851.97;5013375;28;20194;-90
2021/12/27 05:38:26;;;;;;;27.30;13.73;;;;;;;2.25;100.00;97839.56;5033157;28;20185;-89
2021/12/27 05:40:55;;;;;;;26.70;14.60;;;;;;;2.33;100.00;97843.56;5033022;28;20197;-89
2021/12/27 05:43:26;;;;;;;26.30;14.17;;;;;;;2.38;100.00;97842.38;5032894;28;20244;-89
2021/12/27 05:45:54;;;;;;;39.50;14.80;;;;;;;2.36;100.00;97835.53;5035735;28;20208;-89
2021/12/27 05:48:22;;;;;;;43.63;15.83;;;;;;;2.29;100.00;97829.78;5032016;28;20709;-89
2021/12/27 05:50:50;;;;;;;46.10;17.60;;;;;;;2.18;100.00;97829.50;5035919;28;20190;-89
2021/12/27 05:53:20;;;;;;;40.60;16.17;;;;;;;2.26;100.00;97832.56;5032389;28;20256;-90
2021/12/27 05:55:50;;;;;;;27.70;15.07;;;;;;;2.28;100.00;97834.16;5032656;28;20821;-89
2021/12/27 05:58:19;;;;;;;28.53;14.47;;;;;;;2.24;100.00;97834.41;5031594;28;20668;-90
2021/12/27 06:00:48;;;;;;;28.83;15.67;;;;;;;2.24;100.00;97834.41;5031526;28;20198;-90
2021/12/27 06:03:17;;;;;;;42.63;15.47;;;;;;;2.20;100.00;97833.72;5027409;28;20189;-88
2021/12/27 06:05:46;;;;;;;64.60;17.10;;;;;;;2.26;100.00;97838.63;5032823;28;20209;-90
2021/12/27 06:08:14;;;;;;;39.27;16.03;;;;;;;2.30;100.00;97831.47;5035480;28;20198;-87
2021/12/27 06:10:43;;;;;;;28.73;15.00;;;;;;;2.33;100.00;97841.78;5035221;28;20197;-90
2021/12/27 06:13:11;;;;;;;30.97;14.60;;;;;;;2.35;100.00;97839.09;5034871;28;20190;-89
2021/12/27 06:15:39;;;;;;;27.60;14.40;;;;;;;2.40;100.00;97834.44;5029798;28;20190;-90
2021/12/27 06:18:09;;;;;;;62.37;26.67;;;;;;;2.40;100.00;97834.44;5029366;28;20194;-89
2021/12/27 06:20:38;;;;;;;37.63;17.07;;;;;;;2.38;100.00;97829.31;5031447;28;20190;-88
2021/12/27 06:23:06;;;;;;;37.00;15.80;;;;;;;2.34;100.00;97835.63;5030576;28;20186;-89
2021/12/27 06:25:35;;;;;;;31.53;16.17;;;;;;;2.35;100.00;97842.53;5034927;28;20200;-89
2021/12/27 06:28:03;;;;;;;33.97;17.00;;;;;;;2.36;100.00;97843.38;5028994;28;20201;-89
2021/12/27 06:30:31;;;;;;;44.10;17.90;;;;;;;2.40;100.00;97843.13;5043775;28;20186;-81
2021/12/27 06:33:00;;;;;;;29.20;16.63;;;;;;;2.36;100.00;97839.00;5009882;28;1411431;-88
2021/12/27 06:35:30;;;;;;;31.00;17.00;;;;;;;2.35;100.00;97844.31;5053374;28;20284;-89
2021/12/27 06:37:58;;;;;;;31.20;16.67;;;;;;;2.38;100.00;97833.69;5053012;28;20181;-89
2021/12/27 06:40:26;;;;;;;34.00;16.50;;;;;;;2.48;100.00;97840.97;5050274;28;20204;-89
2021/12/27 06:42:55;;;;;;;42.03;17.77;;;;;;;2.46;100.00;97839.38;5045924;28;20200;-88
2021/12/27 06:45:23;;;;;;;39.67;18.30;;;;;;;2.45;100.00;97838.53;5049389;28;20644;-88
2021/12/27 06:47:52;;;;;;;43.37;21.90;;;;;;;2.41;100.00;97828.28;5051011;28;20201;-88
2021/12/27 06:50:21;;;;;;;41.17;19.97;;;;;;;2.52;100.00;97819.00;5050137;28;20200;-88
2021/12/27 06:52:51;;;;;;;47.10;17.63;;;;;;;2.54;100.00;97818.91;5050663;28;20189;-89
2021/12/27 06:55:20;;;;;;;33.77;16.37;;;;;;;2.49;100.00;97818.28;5049869;28;20225;-88
2021/12/27 06:57:49;;;;;;;73.03;19.47;;;;;;;2.44;100.00;97817.72;5049913;28;20193;-89
2021/12/27 07:00:17;;;;;;;45.83;19.67;;;;;;;2.46;100.00;97819.31;5050904;28;20193;-89
2021/12/27 07:02:47;;;;;;;38.57;16.63;;;;;;;2.47;100.00;97825.38;5048922;28;20223;-88
2021/12/27 07:05:17;;;;;;;31.27;16.47;;;;;;;2.45;100.00;97825.47;5055418;28;20197;-87
2021/12/27 07:07:46;;;;;;;36.97;16.87;;;;;;;2.46;100.00;97821.06;5051775;28;20204;-87
2021/12/27 07:10:19;;;;;;;36.70;15.10;;;;;;;2.48;100.00;97827.06;5052507;28;20212;-87
2021/12/27 07:12:48;;;;;;;36.97;16.23;;;;;;;2.43;100.00;97826.47;5047187;28;20205;-89
2021/12/27 07:15:16;;;;;;;39.63;15.50;;;;;;;2.36;100.00;97830.31;5047629;28;20209;-87
2021/12/27 07:17:44;;;;;;;44.37;16.47;;;;;;;2.39;100.00;97820.53;5045346;28;20200;-87
2021/12/27 07:20:13;;;;;;;29.10;15.30;;;;;;;2.42;100.00;97825.63;5047378;28;20205;-87
2021/12/27 07:22:41;;;;;;;40.47;14.87;;;;;;;2.47;100.00;97818.38;5046868;28;20247;-87
2021/12/27 07:25:10;;;;;;;29.50;14.13;;;;;;;2.48;100.00;97821.84;5049304;28;20345;-86
2021/12/27 07:27:40;;;;;;;38.40;17.77;;;;;;;2.53;100.00;97822.44;5050647;28;20200;-87
2021/12/27 07:30:11;;;;;;;35.67;21.37;;;;;;;2.73;100.00;97829.22;5051945;28;20197;-87
2021/12/27 07:32:56;;;;;;;61.67;21.53;;;;;;;2.69;100.00;97830.28;5048638;28;20217;-85
2021/12/27 07:35:42;;;;;;;30.80;16.20;;;;;;;2.75;100.00;97835.19;5053612;28;20252;-87
2021/12/27 07:38:32;;;;;;;39.37;18.60;;;;;;;2.63;100.00;97834.09;5057948;28;20220;-87
2021/12/27 07:41:15;;;;;;;38.50;17.20;;;;;;;2.61;100.00;97829.88;5035340;28;20217;-87
2021/12/27 07:43:56;;;;;;;49.03;16.90;;;;;;;2.49;100.00;97837.41;5037112;28;20201;-87
2021/12/27 07:46:24;;;;;;;47.33;14.67;;;;;;;2.52;100.00;97839.91;5029103;28;20189;-86
2021/12/27 07:48:53;;;;;;;29.83;12.97;;;;;;;2.53;100.00;97838.13;5032361;28;20215;-86
2021/12/27 07:51:21;;;;;;;22.63;12.73;;;;;;;2.60;100.00;97829.00;5031678;28;20189;-87
2021/12/27 07:53:52;;;;;;;24.93;12.77;;;;;;;2.68;100.00;97833.84;5039631;28;20232;-86
2021/12/27 07:56:21;;;;;;;29.47;13.63;;;;;;;2.67;100.00;97842.59;4976258;28;20643;-85
2021/12/27 07:58:50;;;;;;;29.63;14.17;;;;;;;2.76;100.00;97842.97;4968334;28;20200;-86
2021/12/27 08:01:22;;;;;;;29.90;13.83;;;;;;;2.80;100.00;97843.66;4972663;28;20192;-86
2021/12/27 08:03:52;;;;;;;31.40;13.70;;;;;;;2.81;100.00;97848.78;4976264;28;20284;-86
2021/12/27 08:06:27;;;;;;;29.47;13.23;;;;;;;2.76;100.00;97847.34;4973515;28;20258;-85
2021/12/27 08:08:57;;;;;;;34.53;16.00;;;;;;;3.02;100.00;97833.72;4969240;28;20671;-86
2021/12/27 08:11:26;;;;;;;36.73;15.10;;;;;;;3.03;100.00;97835.38;4971917;28;20187;-86
2021/12/27 08:13:56;;;;;;;34.80;14.53;;;;;;;3.03;100.00;97835.38;4980183;28;20202;-85
2021/12/27 08:16:27;;;;;;;44.67;17.67;;;;;;;3.10;100.00;97836.75;5009518;28;20202;-86
2021/12/27 08:18:56;;;;;;;33.17;16.07;;;;;;;3.11;100.00;97835.81;5011206;28;20646;-86
2021/12/27 08:21:26;;;;;;;36.03;15.63;;;;;;;3.06;100.00;97835.22;5007678;28;20247;-85
2021/12/27 08:23:54;;;;;;;36.93;15.13;;;;;;;3.12;100.00;97828.81;5008696;28;20225;-86
2021/12/27 08:26:23;;;;;;;46.70;14.83;;;;;;;3.11;100.00;97837.59;5013119;28;20199;-86
2021/12/27 08:28:53;;;;;;;28.10;12.27;;;;;;;3.12;100.00;97832.28;5011588;28;20199;-86
2021/12/27 08:31:22;;;;;;;51.97;12.77;;;;;;;3.00;100.00;97825.09;5028523;28;20190;-86
2021/12/27 08:33:51;;;;;;;41.87;11.33;;;;;;;3.07;100.00;97828.22;5050582;28;20683;-86
2021/12/27 08:36:20;;;;;;;50.13;12.07;;;;;;;3.04;100.00;97815.31;5054509;28;20213;-85
2021/12/27 08:38:50;;;;;;;53.60;11.20;;;;;;;3.07;100.00;97825.59;5053533;28;20209;-86
2021/12/27 08:41:19;;;;;;;32.03;11.03;;;;;;;3.19;100.00;97832.78;5052818;28;20197;-86
2021/12/27 08:43:48;;;;;;;38.50;12.90;;;;;;;3.13;100.00;97826.09;5047368;28;20185;-86
2021/12/27 08:46:17;;;;;;;69.27;16.13;;;;;;;3.07;100.00;97818.59;5052642;28;20190;-86
2021/12/27 08:48:45;;;;;;;36.27;12.80;;;;;;;3.13;100.00;97826.09;5049884;28;20227;-87
2021/12/27 08:51:15;;;;;;;45.53;13.03;;;;;;;3.19;100.00;97824.94;5057668;28;20193;-85
2021/12/27 08:53:43;;;;;;;23.30;11.97;;;;;;;3.17;100.00;97832.84;5055722;28;20181;-86
2021/12/27 08:56:12;;;;;;;32.20;12.33;;;;;;;3.26;100.00;97826.25;5059077;28;20217;-86
2021/12/27 08:58:40;;;;;;;58.70;13.57;;;;;;;3.18;100.00;97823.22;5050683;28;20251;-86
2021/12/27 09:01:09;;;;;;;30.57;10.60;;;;;;;3.24;100.00;97825.50;5054010;28;20189;-86
2021/12/27 09:03:38;;;;;;;34.30;12.10;;;;;;;3.32;100.00;97831.16;5050004;28;20225;-86
2021/12/27 09:06:09;;;;;;;68.80;14.77;;;;;;;3.35;100.00;97824.91;5045513;28;20713;-86
2021/12/27 09:08:39;;;;;;;35.60;12.03;;;;;;;3.32;100.00;97819.84;5048668;28;20194;-86
2021/12/27 09:11:08;;;;;;;27.13;12.27;;;;;;;3.27;100.00;97820.09;5047518;28;20205;-85
2021/12/27 09:13:37;;;;;;;31.90;12.63;;;;;;;3.30;100.00;97819.94;5055991;28;20197;-86
2021/12/27 09:16:07;;;;;;;23.93;11.87;;;;;;;3.39;100.00;97829.91;5051787;28;20209;-86
2021/12/27 09:18:36;;;;;;;87.00;25.03;;;;;;;3.44;100.00;97821.75;5048946;28;20170;-86
2021/12/27 09:21:05;;;;;;;51.17;23.33;;;;;;;3.53;100.00;97823.88;5046849;28;20177;-86
2021/12/27 09:23:33;;;;;;;38.23;18.63;;;;;;;3.45;100.00;97815.59;5050723;28;20204;-87
2021/12/27 09:26:03;;;;;;;39.90;12.03;;;;;;;3.50;100.00;97818.81;5052732;28;20263;-86
2021/12/27 09:28:34;;;;;;;26.83;12.17;;;;;;;3.45;100.00;97818.22;5057341;28;20193;-87
2021/12/27 09:31:03;;;;;;;28.97;12.07;;;;;;;3.56;100.00;97821.06;5071314;28;20193;-85
2021/12/27 09:33:31;;;;;;;24.67;11.03;;;;;;;3.58;100.00;97816.59;5064127;28;20747;-87
2021/12/27 09:36:01;;;;;;;48.10;14.10;;;;;;;3.53;100.00;97821.25;5054418;28;20221;-86
2021/12/27 09:38:30;;;;;;;54.03;21.67;;;;;;;3.48;100.00;97809.38;5058304;28;20170;-86
2021/12/27 09:41:00;;;;;;;38.93;13.30;;;;;;;3.58;100.00;97808.75;5055349;28;20204;-87
2021/12/27 09:43:32;;;;;;;29.07;12.73;;;;;;;3.52;100.00;97811.72;5052201;28;20173;-87
2021/12/27 09:46:00;;;;;;;29.20;13.17;;;;;;;3.50;100.00;97812.72;5057371;28;20197;-87
2021/12/27 09:48:28;;;;;;;110.67;21.77;;;;;;;3.44;100.00;97803.44;5052396;28;20201;-87
2021/12/27 09:50:58;;;;;;;76.57;20.07;;;;;;;3.51;100.00;97804.78;5064713;28;20184;-88
2021/12/27 09:53:26;;;;;;;27.37;14.17;;;;;;;3.58;100.00;97800.06;5049994;28;20193;-87
2021/12/27 09:56:09;;;;;;;47.13;17.23;;;;;;;3.57;100.00;97807.06;5050052;28;20263;-88
2021/12/27 09:58:39;;;;;;;39.03;18.27;;;;;;;3.58;100.00;97802.69;5057253;28;20193;-87
2021/12/27 10:01:08;;;;;;;36.43;18.47;;;;;;;3.76;100.00;97801.59;5050838;28;20251;-86
2021/12/27 10:03:46;;;;;;;36.30;18.10;;;;;;;3.75;100.00;97797.28;5064794;28;20173;-86
2021/12/27 10:06:15;;;;;;;33.63;18.53;;;;;;;3.81;100.00;97775.97;5064412;28;20205;-84
2021/12/27 10:08:45;;;;;;;36.33;19.23;;;;;;;3.87;100.00;97778.25;5072402;28;20193;-84
2021/12/27 10:11:19;;;;;;;38.20;19.10;;;;;;;3.77;100.00;97773.66;5067322;28;20269;-84
2021/12/27 10:14:11;;;;;;;34.50;18.43;;;;;;;3.94;100.00;97755.97;5064513;28;20197;-83
2021/12/27 10:16:43;;;;;;;44.27;16.57;;;;;;;3.79;100.00;97761.31;5078989;22;20259;-88
2021/12/27 10:19:16;;;;;;;100.17;25.03;;;;;;;3.73;100.00;97772.97;5067583;28;20280;-87
2021/12/27 10:21:46;;;;;;;54.80;19.63;;;;;;;3.86;100.00;97758.25;5059172;28;20200;-87
2021/12/27 10:24:21;;;;;;;36.87;17.60;;;;;;;3.91;100.00;97771.03;5052701;28;20227;-86
2021/12/27 10:26:50;;;;;;;58.30;18.67;;;;;;;3.99;100.00;97759.19;5055272;28;20656;-86
2021/12/27 10:29:23;;;;;;;35.23;18.30;;;;;;;4.03;100.00;97758.03;5054013;28;20200;-87
2021/12/27 10:31:59;;;;;;;29.83;16.40;;;;;;;4.15;100.00;97756.50;5049856;28;20200;-86
2021/12/27 10:34:32;;;;;;;27.67;15.33;;;;;;;4.16;100.00;97754.72;5053540;28;20199;-86
2021/12/27 10:37:13;;;;;;;24.40;14.93;;;;;;;4.17;100.00;97753.78;4992112;28;20674;-87
2021/12/27 10:39:52;;;;;;;27.07;14.37;;;;;;;4.26;100.00;97753.22;4987259;28;20171;-87
2021/12/27 10:42:23;;;;;;;28.53;15.07;;;;;;;4.39;100.00;97740.19;4993924;28;20191;-87
2021/12/27 10:44:56;;;;;;;24.47;14.40;;;;;;;4.41;100.00;97743.56;4990433;28;20176;-86
2021/12/27 10:47:36;;;;;;;24.00;14.17;;;;;;;4.46;100.00;97744.13;4991316;28;20307;-87
2021/12/27 10:50:10;;;;;;;25.10;14.93;;;;;;;4.33;100.00;97733.53;4975007;28;20234;-87
2021/12/27 10:52:57;;;;;;;26.13;15.93;;;;;;;4.47;100.00;97738.78;4967809;28;20774;-87
2021/12/27 10:55:32;;;;;;;27.37;15.13;;;;;;;4.44;100.00;97740.72;4969869;28;20203;-86
2021/12/27 10:58:14;;;;;;;26.10;14.47;;;;;;;4.40;100.00;97745.34;4966247;28;20207;-87
2021/12/27 11:00:44;;;;;;;26.00;14.40;;;;;;;4.48;100.00;97739.63;4973636;28;20206;-87
2021/12/27 11:03:31;;;;;;;22.80;13.50;;;;;;;4.50;100.00;97737.75;4966904;28;20266;-87
2021/12/27 11:06:02;;;;;;;29.53;15.77;;;;;;;4.44;100.00;97727.63;4971410;28;20564;-87
2021/12/27 11:08:33;;;;;;;23.40;13.80;;;;;;;4.46;100.00;97728.41;5012320;28;20649;-86
2021/12/27 11:11:02;;;;;;;20.83;12.13;;;;;;;4.42;100.00;97726.88;5028040;28;20621;-86
2021/12/27 11:13:31;;;;;;;24.47;12.90;;;;;;;4.48;100.00;97726.50;5036097;28;20198;-87
2021/12/27 11:16:02;;;;;;;25.57;13.43;;;;;;;4.57;100.00;97720.69;5035154;28;20212;-86
2021/12/27 11:18:30;;;;;;;26.97;14.13;;;;;;;4.64;100.00;97713.28;5034290;28;20370;-85
2021/12/27 11:21:02;;;;;;;32.10;17.00;;;;;;;4.70;100.00;97721.59;5026465;28;20185;-87
2021/12/27 11:23:32;;;;;;;25.13;14.20;;;;;;;4.69;100.00;97716.44;5038730;28;20213;-87
2021/12/27 11:26:26;;;;;;;24.27;14.77;;;;;;;4.61;100.00;97719.56;5049388;28;20205;-86
2021/12/27 11:29:10;;;;;;;25.73;13.63;;;;;;;4.71;100.00;97711.94;5037387;28;20331;-84
2021/12/27 11:31:41;;;;;;;26.53;15.33;;;;;;;4.62;100.00;97716.00;5027290;28;20209;-87